Time;durP1;ratioP1;P1;durP2;ratioP2;P2;SDS_P1;SDS_P2;PMS_P1;PMS_P2;Temp;Humidity;BMP_temperature;BMP_pressure;BME280_temperature;BME280_humidity;BME280_pressure;Samples;Min_cycle;Max_cycle;Signal;HPM_P1;HPM_P2
2023/05/12 00:01:44;;;;;;;3.33;1.63;;;12.80;99.90;;;;;;5103491;27;20145;-71
2023/05/12 00:04:10;;;;;;;3.15;1.73;;;12.80;99.90;;;;;;5087464;28;20044;-70
2023/05/12 00:06:35;;;;;;;4.70;1.63;;;12.80;99.90;;;;;;5093852;28;20036;-71
2023/05/12 00:09:01;;;;;;;2.38;1.15;;;12.80;99.90;;;;;;5091739;28;20091;-70
2023/05/12 00:11:26;;;;;;;3.28;1.50;;;12.80;99.90;;;;;;5094925;28;20028;-69
2023/05/12 00:13:54;;;;;;;5.85;1.73;;;12.80;99.90;;;;;;5094484;28;20109;-70
2023/05/12 00:16:19;;;;;;;4.32;1.73;;;12.80;99.90;;;;;;5103144;28;20513;-71
2023/05/12 00:18:45;;;;;;;3.70;1.83;;;12.80;99.90;;;;;;5091123;28;20131;-71
2023/05/12 00:21:13;;;;;;;2.60;1.30;;;12.70;99.90;;;;;;5086004;28;20115;-70
2023/05/12 00:23:45;;;;;;;5.43;1.67;;;12.80;99.90;;;;;;5096056;28;20044;-71
2023/05/12 00:26:10;;;;;;;2.67;1.45;;;12.70;99.90;;;;;;5089355;28;20416;-70
2023/05/12 00:28:36;;;;;;;3.85;1.60;;;12.70;99.90;;;;;;5086867;28;20024;-71
2023/05/12 00:31:02;;;;;;;2.78;1.10;;;12.70;99.90;;;;;;5098244;28;20043;-70
2023/05/12 00:33:29;;;;;;;3.42;1.30;;;12.70;99.90;;;;;;5090778;28;20798;-69
2023/05/12 00:35:55;;;;;;;3.92;1.40;;;12.70;99.90;;;;;;5091759;28;21119;-70
2023/05/12 00:38:27;;;;;;;2.75;1.45;;;12.70;99.90;;;;;;5087335;28;20036;-71
2023/05/12 00:40:58;;;;;;;4.82;1.50;;;12.70;99.90;;;;;;5093099;28;20171;-70
2023/05/12 00:43:30;;;;;;;4.13;1.48;;;12.60;99.90;;;;;;5092793;28;20063;-72
2023/05/12 00:45:56;;;;;;;5.50;1.83;;;12.70;99.90;;;;;;5092370;28;20051;-70
2023/05/12 00:48:32;;;;;;;2.67;1.40;;;12.70;99.90;;;;;;5089426;28;20400;-70
2023/05/12 00:50:59;;;;;;;4.47;1.90;;;12.60;99.90;;;;;;5088137;28;20055;-71
2023/05/12 00:53:31;;;;;;;3.65;1.20;;;12.60;99.90;;;;;;5095663;28;20125;-70
2023/05/12 00:56:03;;;;;;;3.05;1.52;;;12.60;99.90;;;;;;5092043;28;20126;-70
2023/05/12 00:58:29;;;;;;;3.45;1.70;;;12.60;99.90;;;;;;5095642;28;20067;-70
2023/05/12 01:00:55;;;;;;;2.80;1.48;;;12.60;99.90;;;;;;5094059;28;20123;-70
2023/05/12 01:03:24;;;;;;;3.08;1.70;;;12.60;99.90;;;;;;5090563;28;20046;-69
2023/05/12 01:06:19;;;;;;;3.25;1.70;;;12.60;99.90;;;;;;5091119;28;20058;-71
2023/05/12 01:08:51;;;;;;;3.58;1.50;;;12.60;99.90;;;;;;5022770;28;20443;-71
2023/05/12 01:11:16;;;;;;;3.45;1.60;;;12.60;99.90;;;;;;5090493;28;20027;-70
2023/05/12 01:13:48;;;;;;;4.13;2.17;;;12.60;99.90;;;;;;5087039;28;20042;-70
2023/05/12 01:16:21;;;;;;;3.53;2.13;;;12.60;99.90;;;;;;5092567;28;20035;-71
2023/05/12 01:18:50;;;;;;;7.47;1.88;;;12.60;99.90;;;;;;5092558;28;20036;-70
2023/05/12 01:21:19;;;;;;;3.58;2.10;;;12.60;99.90;;;;;;5089162;28;20093;-71
2023/05/12 01:23:56;;;;;;;3.88;1.50;;;12.60;99.90;;;;;;5085733;28;20029;-70
2023/05/12 01:26:22;;;;;;;3.40;2.05;;;12.60;99.90;;;;;;5088203;28;20056;-70
2023/05/12 01:28:57;;;;;;;2.97;1.70;;;12.60;99.90;;;;;;5087294;28;20067;-71
2023/05/12 01:31:23;;;;;;;2.80;1.80;;;12.60;99.90;;;;;;5088369;28;20396;-70
2023/05/12 01:33:49;;;;;;;3.50;1.88;;;12.60;99.90;;;;;;5090190;28;20484;-70
2023/05/12 01:36:14;;;;;;;4.05;1.90;;;12.50;99.90;;;;;;5094425;28;20040;-71
2023/05/12 01:38:40;;;;;;;5.28;1.73;;;12.50;99.90;;;;;;5091600;28;20036;-70
2023/05/12 01:41:06;;;;;;;6.65;1.70;;;12.50;99.90;;;;;;5087915;28;20062;-70
2023/05/12 01:43:31;;;;;;;3.85;2.00;;;12.50;99.90;;;;;;5088594;28;20036;-71
2023/05/12 01:45:57;;;;;;;5.05;2.58;;;12.40;99.90;;;;;;5091414;28;20043;-70
2023/05/12 01:48:22;;;;;;;4.43;2.10;;;12.50;99.90;;;;;;5087931;28;20047;-69
2023/05/12 01:50:48;;;;;;;4.20;2.55;;;12.40;99.90;;;;;;5089524;28;20032;-70
2023/05/12 01:53:19;;;;;;;4.38;2.22;;;12.40;99.90;;;;;;5093105;28;20053;-70
2023/05/12 01:55:45;;;;;;;3.75;1.95;;;12.40;99.90;;;;;;5084718;28;20028;-70
2023/05/12 01:58:13;;;;;;;4.50;2.38;;;12.50;99.90;;;;;;5091741;28;20042;-70
2023/05/12 02:00:39;;;;;;;4.95;2.50;;;12.40;99.90;;;;;;5095743;28;20115;-71
2023/05/12 02:03:05;;;;;;;4.32;2.17;;;12.40;99.90;;;;;;5091546;28;20043;-70
2023/05/12 02:05:30;;;;;;;4.13;2.17;;;12.40;99.90;;;;;;5087936;28;20032;-70
2023/05/12 02:07:56;;;;;;;3.88;1.75;;;12.40;99.90;;;;;;5091995;28;20040;-70
2023/05/12 02:10:21;;;;;;;4.00;1.70;;;12.40;99.90;;;;;;5089058;28;20123;-70
2023/05/12 02:12:50;;;;;;;2.13;1.20;;;12.40;99.90;;;;;;5087067;28;20027;-71
2023/05/12 02:15:18;;;;;;;2.47;1.38;;;12.40;99.90;;;;;;5088276;28;20036;-71
2023/05/12 02:17:44;;;;;;;2.95;1.55;;;12.40;99.90;;;;;;5088852;28;20204;-71
2023/05/12 02:20:11;;;;;;;2.78;1.50;;;12.30;99.90;;;;;;5088776;28;20658;-71
2023/05/12 02:22:36;;;;;;;3.50;1.70;;;12.30;99.90;;;;;;5085593;28;20519;-72
2023/05/12 02:25:06;;;;;;;5.60;1.50;;;12.30;99.90;;;;;;5085905;28;20032;-70
2023/05/12 02:27:31;;;;;;;4.20;1.20;;;12.40;99.90;;;;;;5091253;28;20035;-70
2023/05/12 02:30:00;;;;;;;2.35;1.00;;;12.30;99.90;;;;;;5086129;28;20032;-70
2023/05/12 02:32:28;;;;;;;3.25;1.40;;;12.30;99.90;;;;;;5085375;28;20110;-71
2023/05/12 02:34:57;;;;;;;3.03;1.23;;;12.30;99.90;;;;;;5086182;28;20032;-70
2023/05/12 02:37:22;;;;;;;3.15;1.30;;;12.30;99.90;;;;;;5087293;28;20039;-69
2023/05/12 02:39:54;;;;;;;2.80;1.25;;;12.30;99.90;;;;;;5092313;28;20028;-69
2023/05/12 02:42:22;;;;;;;3.15;1.45;;;12.30;99.90;;;;;;5085285;28;20040;-70
2023/05/12 02:44:48;;;;;;;2.00;1.10;;;12.20;99.90;;;;;;5091723;28;20036;-71
2023/05/12 02:47:14;;;;;;;2.83;1.15;;;12.30;99.90;;;;;;5084565;28;20038;-70
2023/05/12 02:49:40;;;;;;;2.53;0.80;;;12.20;99.90;;;;;;5088761;28;20031;-70
2023/05/12 02:52:08;;;;;;;1.65;0.73;;;12.20;99.90;;;;;;5089261;28;20494;-70
2023/05/12 02:54:35;;;;;;;1.45;0.65;;;12.30;99.90;;;;;;5089520;28;20040;-70
2023/05/12 02:57:04;;;;;;;1.75;0.80;;;12.20;99.90;;;;;;5094506;28;20035;-70
2023/05/12 02:59:30;;;;;;;1.90;0.80;;;12.20;99.90;;;;;;5092864;28;20077;-70
2023/05/12 03:01:58;;;;;;;1.67;0.50;;;12.30;99.90;;;;;;5090600;28;20127;-70
2023/05/12 03:04:27;;;;;;;2.78;0.60;;;12.20;99.90;;;;;;5089306;28;20051;-70
2023/05/12 03:06:56;;;;;;;1.30;0.40;;;12.30;99.90;;;;;;5090244;28;20031;-70
2023/05/12 03:09:21;;;;;;;0.80;0.40;;;12.30;99.90;;;;;;5091347;28;20043;-70
2023/05/12 03:11:53;;;;;;;1.60;0.40;;;12.30;99.90;;;;;;5090771;28;20028;-69
2023/05/12 03:14:27;;;;;;;0.88;0.50;;;12.30;99.90;;;;;;5091136;28;20067;-71
2023/05/12 03:16:55;;;;;;;1.13;0.60;;;12.30;99.90;;;;;;5095098;28;20043;-71
2023/05/12 03:19:21;;;;;;;0.80;0.50;;;12.30;99.90;;;;;;5088595;28;20040;-71
2023/05/12 03:21:53;;;;;;;1.02;0.50;;;12.30;99.90;;;;;;5087699;28;20253;-70
2023/05/12 03:24:19;;;;;;;1.95;0.63;;;12.30;99.90;;;;;;5091034;28;20049;-70
2023/05/12 03:26:47;;;;;;;1.15;0.50;;;12.30;99.90;;;;;;5089071;28;20031;-70
2023/05/12 03:29:15;;;;;;;1.80;1.10;;;12.30;99.90;;;;;;5091484;28;20024;-71
2023/05/12 03:31:41;;;;;;;2.05;0.70;;;12.30;99.90;;;;;;5090236;28;20128;-71
2023/05/12 03:34:09;;;;;;;2.55;0.95;;;12.30;99.90;;;;;;5090117;28;20078;-71
2023/05/12 03:36:42;;;;;;;3.45;1.08;;;12.30;99.90;;;;;;5095805;28;20060;-70
2023/05/12 03:39:08;;;;;;;1.73;0.80;;;12.30;99.90;;;;;;5092841;28;20032;-71
2023/05/12 03:41:34;;;;;;;6.38;1.60;;;12.30;99.90;;;;;;5088591;28;20146;-71
2023/05/12 03:44:00;;;;;;;5.00;2.20;;;12.30;99.90;;;;;;5096057;28;20365;-71
2023/05/12 03:46:25;;;;;;;3.70;1.77;;;12.30;99.90;;;;;;5096924;28;20028;-70
2023/05/12 03:48:51;;;;;;;5.55;2.45;;;12.30;99.90;;;;;;5090647;28;20036;-70
2023/05/12 03:51:23;;;;;;;5.93;2.20;;;12.30;99.90;;;;;;5089346;28;20134;-71
2023/05/12 03:53:49;;;;;;;5.55;2.35;;;12.30;99.90;;;;;;5079372;28;20113;-71
2023/05/12 03:56:15;;;;;;;5.43;2.65;;;12.30;99.90;;;;;;5092280;28;20705;-70
2023/05/12 03:58:41;;;;;;;5.40;2.75;;;12.30;99.90;;;;;;5088907;28;20032;-72
2023/05/12 04:01:10;;;;;;;7.00;2.90;;;12.30;99.90;;;;;;5088008;28;20042;-71
2023/05/12 04:03:36;;;;;;;8.52;3.00;;;12.30;99.90;;;;;;5088113;28;20177;-76
2023/05/12 04:06:02;;;;;;;9.48;3.97;;;12.30;99.90;;;;;;5089638;28;20103;-72
2023/05/12 04:08:28;;;;;;;10.43;4.13;;;12.30;99.90;;;;;;5088299;28;20044;-72
2023/05/12 04:10:58;;;;;;;12.02;4.60;;;12.30;99.90;;;;;;5091744;28;20020;-71
2023/05/12 04:13:24;;;;;;;12.48;4.30;;;12.30;99.90;;;;;;5088403;28;20028;-71
2023/05/12 04:15:53;;;;;;;13.05;4.65;;;12.30;99.90;;;;;;5091667;28;20056;-71
2023/05/12 04:18:26;;;;;;;10.93;5.22;;;12.30;99.90;;;;;;5089576;28;20040;-70
2023/05/12 04:20:55;;;;;;;11.65;5.00;;;12.30;99.90;;;;;;5085503;28;20024;-70
2023/05/12 04:23:23;;;;;;;12.43;4.72;;;12.30;99.90;;;;;;5100240;27;20499;-70
2023/05/12 04:25:55;;;;;;;16.05;6.10;;;12.30;99.90;;;;;;5085450;28;20035;-70
2023/05/12 04:28:21;;;;;;;11.85;5.43;;;12.30;99.90;;;;;;5096647;28;20039;-70
2023/05/12 04:30:49;;;;;;;14.68;6.18;;;12.30;99.90;;;;;;5088577;28;20509;-71
2023/05/12 04:33:24;;;;;;;14.65;6.03;;;12.30;99.90;;;;;;5100109;28;20025;-70
2023/05/12 04:35:55;;;;;;;18.45;6.25;;;12.30;99.90;;;;;;5086727;28;20044;-71
2023/05/12 04:38:21;;;;;;;13.27;6.18;;;12.20;99.90;;;;;;5092899;28;20043;-70
2023/05/12 04:40:49;;;;;;;16.23;6.22;;;12.30;99.90;;;;;;5087806;28;20024;-71
2023/05/12 04:43:15;;;;;;;15.20;5.75;;;12.30;99.90;;;;;;5092850;28;20040;-70
2023/05/12 04:45:40;;;;;;;14.93;6.35;;;12.30;99.90;;;;;;5086608;28;20548;-70
2023/05/12 04:48:09;;;;;;;14.35;6.18;;;12.30;99.90;;;;;;5089036;28;20020;-71
2023/05/12 04:50:34;;;;;;;14.35;5.95;;;12.30;99.90;;;;;;5092975;28;20132;-70
2023/05/12 04:53:00;;;;;;;12.55;6.20;;;12.40;99.90;;;;;;5086054;28;20527;-70
2023/05/12 04:55:29;;;;;;;15.50;6.30;;;12.40;99.90;;;;;;5087412;28;20040;-71
2023/05/12 04:57:55;;;;;;;10.40;5.45;;;12.30;99.90;;;;;;5078523;28;20026;-70
2023/05/12 05:00:26;;;;;;;19.13;7.28;;;12.40;99.90;;;;;;5087167;28;20036;-70
2023/05/12 05:02:55;;;;;;;15.15;6.30;;;12.40;99.90;;;;;;5078066;28;20480;-71
2023/05/12 05:05:26;;;;;;;19.05;7.55;;;12.30;99.90;;;;;;5092230;28;20055;-71
2023/05/12 05:07:52;;;;;;;18.75;7.13;;;12.30;99.90;;;;;;5090582;28;20031;-71
2023/05/12 05:10:18;;;;;;;21.73;8.30;;;12.40;99.90;;;;;;5089487;28;20642;-72
2023/05/12 05:12:43;;;;;;;17.42;6.82;;;12.40;99.90;;;;;;5087686;28;20476;-71
2023/05/12 05:15:10;;;;;;;18.73;7.28;;;12.40;99.90;;;;;;5088071;28;20024;-70
2023/05/12 05:17:42;;;;;;;17.83;8.70;;;12.30;99.90;;;;;;5088626;28;20503;-73
2023/05/12 05:20:08;;;;;;;20.23;8.00;;;12.40;99.90;;;;;;5086611;28;20024;-71
2023/05/12 05:22:34;;;;;;;15.27;7.15;;;12.40;99.90;;;;;;5087954;28;20144;-70
2023/05/12 05:25:02;;;;;;;23.30;9.73;;;12.40;99.90;;;;;;5085088;28;20731;-69
2023/05/12 05:27:28;;;;;;;23.20;8.52;;;12.50;99.90;;;;;;5090095;28;20071;-70
2023/05/12 05:30:07;;;;;;;21.67;9.38;;;12.40;99.90;;;;;;5091487;28;20064;-69
2023/05/12 05:32:35;;;;;;;23.05;9.02;;;12.40;99.90;;;;;;5087374;28;20036;-71
2023/05/12 05:35:04;;;;;;;20.17;8.57;;;12.50;99.90;;;;;;5089514;28;20028;-72
2023/05/12 05:37:29;;;;;;;23.35;8.10;;;12.50;99.90;;;;;;5086469;28;20055;-70
2023/05/12 05:39:58;;;;;;;24.30;9.45;;;12.50;99.90;;;;;;5087140;28;20733;-70
2023/05/12 05:42:23;;;;;;;25.08;8.77;;;12.60;99.90;;;;;;5090588;28;20519;-70
2023/05/12 05:44:49;;;;;;;22.63;9.40;;;12.60;99.90;;;;;;5085376;28;20044;-69
2023/05/12 05:47:17;;;;;;;27.27;8.80;;;12.60;99.90;;;;;;5086897;28;20851;-70
2023/05/12 05:49:43;;;;;;;26.67;11.15;;;12.60;99.90;;;;;;5089947;28;20578;-71
2023/05/12 05:52:09;;;;;;;23.00;10.00;;;12.70;99.90;;;;;;5090018;28;20024;-70
2023/05/12 05:54:34;;;;;;;25.40;10.20;;;12.70;99.90;;;;;;5089581;28;20094;-72
2023/05/12 05:57:02;;;;;;;23.42;9.43;;;12.70;99.90;;;;;;5090628;28;20111;-71
2023/05/12 05:59:28;;;;;;;28.55;10.27;;;12.80;99.90;;;;;;5091493;28;20036;-71
2023/05/12 06:01:53;;;;;;;21.00;9.20;;;12.80;99.90;;;;;;5085214;28;20093;-70
2023/05/12 06:04:19;;;;;;;25.38;9.95;;;12.80;99.90;;;;;;5090432;28;20085;-71
2023/05/12 06:06:50;;;;;;;26.20;10.10;;;12.90;99.90;;;;;;5085733;28;20055;-70
2023/05/12 06:09:16;;;;;;;25.40;10.18;;;13.00;99.90;;;;;;5088218;28;20056;-69
2023/05/12 06:11:41;;;;;;;25.10;9.35;;;13.00;99.90;;;;;;5085909;28;20062;-71
2023/05/12 06:14:07;;;;;;;20.85;9.52;;;13.00;99.90;;;;;;5094677;28;20055;-70
2023/05/12 06:16:32;;;;;;;22.60;8.43;;;13.20;99.90;;;;;;5091223;28;20032;-71
2023/05/12 06:19:04;;;;;;;19.23;9.05;;;13.20;99.90;;;;;;5086104;28;20641;-70
2023/05/12 06:21:31;;;;;;;20.67;8.55;;;13.30;99.90;;;;;;5092746;28;20119;-70
2023/05/12 06:23:56;;;;;;;21.48;9.27;;;13.40;99.90;;;;;;5077866;28;20167;-71
2023/05/12 06:26:22;;;;;;;20.85;8.95;;;13.30;99.90;;;;;;5085956;28;20036;-70
2023/05/12 06:28:47;;;;;;;20.63;9.65;;;13.40;99.90;;;;;;5086068;28;20032;-70
2023/05/12 06:31:13;;;;;;;22.15;9.38;;;13.30;99.90;;;;;;5089505;28;20043;-69
2023/05/12 06:33:38;;;;;;;23.65;8.43;;;13.30;99.90;;;;;;5085353;28;20686;-70
2023/05/12 06:36:04;;;;;;;21.77;9.30;;;13.30;99.90;;;;;;5088155;28;20048;-70
2023/05/12 06:38:30;;;;;;;20.65;9.13;;;13.30;99.90;;;;;;5086609;28;20035;-70
2023/05/12 06:40:55;;;;;;;23.05;8.93;;;13.40;99.90;;;;;;5087893;28;20043;-71
2023/05/12 06:43:22;;;;;;;18.77;8.30;;;13.40;99.90;;;;;;5087824;28;20476;-71
2023/05/12 06:45:50;;;;;;;21.35;8.32;;;13.50;99.90;;;;;;5091909;28;20037;-72
2023/05/12 06:48:16;;;;;;;21.67;8.50;;;13.60;99.90;;;;;;5088649;28;20115;-72
2023/05/12 06:50:44;;;;;;;18.00;8.15;;;13.70;99.90;;;;;;5086113;28;20173;-72
2023/05/12 06:53:13;;;;;;;21.98;8.82;;;13.60;99.90;;;;;;5087238;28;20032;-73
2023/05/12 06:55:39;;;;;;;21.83;8.75;;;13.70;99.90;;;;;;5087403;28;20039;-73
2023/05/12 06:58:07;;;;;;;21.33;8.18;;;13.80;99.90;;;;;;5088670;28;20024;-72
2023/05/12 07:00:33;;;;;;;23.42;8.73;;;13.80;99.90;;;;;;5089252;28;20032;-73
2023/05/12 07:02:58;;;;;;;24.75;9.10;;;13.90;99.90;;;;;;5085470;28;20043;-71
2023/05/12 07:05:24;;;;;;;21.05;8.50;;;13.90;99.90;;;;;;5089264;28;20039;-71
2023/05/12 07:07:50;;;;;;;18.83;8.55;;;14.00;99.90;;;;;;5084805;28;20504;-71
2023/05/12 07:10:15;;;;;;;18.42;8.93;;;14.00;99.90;;;;;;5091318;28;20075;-72
2023/05/12 07:12:41;;;;;;;16.50;8.52;;;14.00;99.90;;;;;;5084646;28;20510;-72
2023/05/12 07:15:10;;;;;;;20.15;8.90;;;14.20;99.90;;;;;;5088741;28;20043;-72
2023/05/12 07:17:35;;;;;;;16.13;7.90;;;14.40;99.90;;;;;;5085687;28;20032;-71
2023/05/12 07:20:03;;;;;;;19.17;8.25;;;14.50;99.90;;;;;;5082878;28;20040;-72
2023/05/12 07:22:31;;;;;;;19.55;7.75;;;14.60;99.90;;;;;;5082250;28;20085;-72
2023/05/12 07:24:56;;;;;;;17.83;7.03;;;14.80;99.90;;;;;;5082882;28;20056;-71
2023/05/12 07:27:22;;;;;;;18.70;8.10;;;15.00;99.90;;;;;;5083568;28;20036;-75
2023/05/12 07:29:53;;;;;;;16.17;6.80;;;15.20;99.90;;;;;;5083596;28;20139;-71
2023/05/12 07:32:25;;;;;;;25.27;7.68;;;15.30;99.90;;;;;;5086883;28;20055;-72
2023/05/12 07:34:54;;;;;;;12.68;6.72;;;15.50;99.90;;;;;;5085493;28;20545;-72
2023/05/12 07:37:26;;;;;;;15.95;7.65;;;15.50;99.90;;;;;;5086130;28;20047;-71
2023/05/12 07:39:51;;;;;;;13.98;6.53;;;15.50;99.90;;;;;;5083804;28;20056;-73
2023/05/12 07:42:21;;;;;;;14.93;6.97;;;15.60;99.90;;;;;;5085280;28;20063;-72
2023/05/12 07:44:47;;;;;;;13.65;6.47;;;15.50;99.90;;;;;;5088618;28;20047;-72
2023/05/12 07:47:16;;;;;;;16.35;6.82;;;15.60;99.90;;;;;;5092136;28;20085;-71
2023/05/12 07:49:41;;;;;;;17.67;6.95;;;15.60;99.90;;;;;;5083947;28;20043;-71
2023/05/12 07:52:10;;;;;;;16.27;7.40;;;15.70;99.90;;;;;;5093520;28;20040;-70
2023/05/12 07:54:36;;;;;;;14.90;7.25;;;15.70;99.90;;;;;;5089426;28;20496;-71
2023/05/12 07:57:05;;;;;;;18.75;6.75;;;15.80;99.90;;;;;;5096082;28;20085;-71
2023/05/12 07:59:30;;;;;;;14.68;7.22;;;15.80;99.90;;;;;;5087507;28;20036;-71
2023/05/12 08:01:59;;;;;;;15.55;7.18;;;15.90;99.90;;;;;;5089236;28;22157;-71
2023/05/12 08:04:25;;;;;;;15.73;7.30;;;16.00;99.90;;;;;;5092065;28;20040;-72
2023/05/12 08:06:56;;;;;;;17.15;6.57;;;16.10;99.90;;;;;;5097314;27;20046;-70
2023/05/12 08:09:25;;;;;;;12.48;6.32;;;16.20;99.90;;;;;;5087517;28;20039;-71
2023/05/12 08:11:50;;;;;;;13.07;6.68;;;16.40;99.90;;;;;;5088002;28;20055;-70
2023/05/12 08:14:16;;;;;;;14.27;6.18;;;16.60;99.90;;;;;;5092378;28;20059;-73
2023/05/12 08:16:44;;;;;;;15.27;6.22;;;16.80;99.90;;;;;;5087372;28;20024;-71
2023/05/12 08:19:11;;;;;;;12.48;6.25;;;17.00;99.90;;;;;;5095136;28;20064;-71
2023/05/12 08:21:42;;;;;;;12.90;5.68;;;17.20;99.90;;;;;;5086503;28;20487;-71
2023/05/12 08:24:16;;;;;;;12.50;5.25;;;17.40;99.90;;;;;;5084191;28;20063;-71
2023/05/12 08:26:42;;;;;;;11.52;5.40;;;17.70;99.90;;;;;;5086818;28;20404;-71
2023/05/12 08:29:08;;;;;;;11.65;5.13;;;17.90;99.90;;;;;;5086219;28;20027;-71
2023/05/12 08:31:36;;;;;;;7.75;4.72;;;18.20;99.90;;;;;;5087884;28;20032;-72
2023/05/12 08:34:08;;;;;;;9.90;4.43;;;18.40;99.90;;;;;;5090787;28;20459;-71
2023/05/12 08:36:34;;;;;;;8.18;4.53;;;18.50;99.90;;;;;;5084574;28;20040;-72
2023/05/12 08:39:01;;;;;;;10.23;4.88;;;18.60;99.90;;;;;;5088802;28;20051;-72
2023/05/12 08:41:39;;;;;;;9.15;5.13;;;18.60;99.90;;;;;;5085918;28;20032;-71
2023/05/12 08:44:06;;;;;;;11.18;5.60;;;18.60;99.90;;;;;;5089341;27;20039;-71
2023/05/12 08:46:31;;;;;;;12.85;5.80;;;18.70;99.90;;;;;;5090461;28;20031;-71
2023/05/12 08:49:10;;;;;;;9.30;5.20;;;18.90;99.90;;;;;;5094204;28;20399;-71
2023/05/12 08:51:38;;;;;;;10.40;4.63;;;19.10;99.90;;;;;;5087998;28;20583;-72
2023/05/12 08:54:07;;;;;;;9.55;4.97;;;19.10;99.90;;;;;;5087324;28;20067;-72
2023/05/12 08:56:33;;;;;;;10.20;5.43;;;19.10;99.90;;;;;;5086383;28;20054;-71
2023/05/12 08:59:01;;;;;;;9.40;5.30;;;19.00;99.90;;;;;;5089412;28;20027;-71
2023/05/12 09:01:28;;;;;;;7.68;4.53;;;19.00;99.90;;;;;;5090114;28;20048;-71
2023/05/12 09:04:00;;;;;;;10.25;5.13;;;19.10;99.90;;;;;;5086824;28;20495;-73
2023/05/12 09:06:32;;;;;;;10.23;5.15;;;19.00;99.90;;;;;;5092297;28;20024;-72
2023/05/12 09:09:02;;;;;;;8.23;4.78;;;19.10;99.90;;;;;;5096985;28;20039;-71
2023/05/12 09:11:27;;;;;;;9.88;5.28;;;19.40;99.90;;;;;;5086469;28;20089;-70
2023/05/12 09:13:59;;;;;;;10.50;4.40;;;19.50;99.90;;;;;;5100175;28;20074;-71
2023/05/12 09:16:28;;;;;;;8.25;4.35;;;19.60;99.90;;;;;;5103205;28;20123;-70
2023/05/12 09:19:05;;;;;;;7.38;3.75;;;19.70;99.90;;;;;;5093173;28;20085;-72
2023/05/12 09:21:34;;;;;;;4.47;2.80;;;19.80;99.90;;;;;;5095768;28;20043;-71
2023/05/12 09:24:15;;;;;;;5.30;3.35;;;19.80;99.90;;;;;;5092581;28;20028;-71
2023/05/12 09:26:51;;;;;;;9.18;4.68;;;19.80;99.90;;;;;;5091505;28;20032;-72
2023/05/12 09:29:20;;;;;;;8.30;4.05;;;19.90;99.90;;;;;;5092222;28;20427;-72
2023/05/12 09:32:02;;;;;;;21.45;3.90;;;20.00;99.90;;;;;;5091641;28;20169;-72
2023/05/12 09:34:35;;;;;;;7.85;3.42;;;20.00;99.90;;;;;;5099796;28;20035;-72
2023/05/12 09:37:05;;;;;;;6.05;3.55;;;20.10;99.90;;;;;;5091472;28;20040;-71
2023/05/12 09:39:35;;;;;;;7.43;3.40;;;20.30;99.90;;;;;;5097986;28;20032;-71
2023/05/12 09:42:10;;;;;;;5.25;2.83;;;20.40;99.90;;;;;;5097500;28;20054;-71
2023/05/12 09:44:37;;;;;;;5.80;3.53;;;20.50;99.90;;;;;;5089973;28;20035;-72
2023/05/12 09:47:09;;;;;;;6.38;3.13;;;20.50;99.90;;;;;;5091234;28;20036;-71
2023/05/12 09:49:45;;;;;;;7.00;3.15;;;20.40;99.90;;;;;;5089650;28;20390;-70
2023/05/12 09:52:19;;;;;;;6.22;3.15;;;20.50;99.90;;;;;;5086784;28;20036;-71
2023/05/12 09:54:46;;;;;;;4.85;3.08;;;20.60;99.90;;;;;;5090837;28;20111;-70
2023/05/12 09:57:15;;;;;;;5.00;2.50;;;20.70;99.90;;;;;;5085906;28;20438;-70
2023/05/12 09:59:46;;;;;;;4.07;2.15;;;20.60;99.90;;;;;;5085878;28;20043;-70
2023/05/12 10:02:15;;;;;;;3.95;2.45;;;20.40;99.90;;;;;;5079072;28;20039;-72
2023/05/12 10:04:54;;;;;;;6.55;2.38;;;20.20;99.90;;;;;;5084830;28;20544;-71
2023/05/12 10:07:22;;;;;;;4.43;2.05;;;20.00;99.90;;;;;;5080570;28;20036;-72
2023/05/12 10:09:54;;;;;;;5.13;2.70;;;20.00;99.90;;;;;;5084848;28;20085;-71
2023/05/12 10:12:19;;;;;;;5.78;2.50;;;20.00;99.90;;;;;;5086810;28;20032;-71
2023/05/12 10:14:46;;;;;;;4.80;2.20;;;20.10;99.90;;;;;;5092395;28;20721;-71
2023/05/12 10:17:21;;;;;;;5.05;2.80;;;20.20;99.90;;;;;;5094437;28;20491;-71
2023/05/12 10:19:51;;;;;;;7.97;2.33;;;20.30;99.90;;;;;;5088803;28;20028;-72
2023/05/12 10:22:18;;;;;;;4.22;2.65;;;20.50;99.90;;;;;;5089060;28;20040;-71
2023/05/12 10:24:45;;;;;;;3.55;2.33;;;20.60;99.90;;;;;;5089475;28;20036;-73
2023/05/12 10:27:16;;;;;;;3.78;2.17;;;20.60;99.90;;;;;;5096586;28;20506;-71
2023/05/12 10:29:42;;;;;;;5.65;2.40;;;20.60;99.90;;;;;;5086864;28;20454;-72
2023/05/12 10:32:08;;;;;;;3.92;2.35;;;20.70;99.90;;;;;;5085970;28;20028;-70
2023/05/12 10:34:36;;;;;;;3.80;2.15;;;20.80;99.90;;;;;;5087893;28;20044;-71
2023/05/12 10:37:12;;;;;;;4.22;2.50;;;21.00;99.90;;;;;;5084720;28;20075;-71
2023/05/12 10:39:46;;;;;;;3.22;1.88;;;21.10;99.90;;;;;;5083842;28;20043;-74
2023/05/12 10:42:36;;;;;;;3.40;1.48;;;21.20;99.90;;;;;;5087643;28;20021;-72
2023/05/12 10:45:20;;;;;;;1.55;1.30;;;21.30;99.90;;;;;;5095304;28;20036;-71
2023/05/12 10:47:46;;;;;;;2.40;1.42;;;21.30;99.90;;;;;;5087303;28;20026;-71
2023/05/12 10:50:12;;;;;;;3.20;1.60;;;21.10;99.90;;;;;;5086541;28;20020;-72
2023/05/12 10:52:55;;;;;;;2.97;1.85;;;21.00;99.90;;;;;;5089290;28;20089;-71
2023/05/12 10:55:40;;;;;;;2.45;1.52;;;21.00;99.90;;;;;;5096339;28;20036;-71
2023/05/12 10:58:11;;;;;;;2.03;1.23;;;21.00;99.90;;;;;;5087616;28;20052;-74
2023/05/12 11:00:45;;;;;;;2.05;1.33;;;21.10;99.90;;;;;;5087106;28;20044;-75
2023/05/12 11:03:13;;;;;;;3.10;1.70;;;21.20;99.90;;;;;;5087042;28;20090;-72
2023/05/12 11:05:42;;;;;;;5.10;1.50;;;21.20;99.90;;;;;;5085578;28;20115;-72
2023/05/12 11:08:11;;;;;;;2.33;1.33;;;21.20;99.90;;;;;;5088953;28;20032;-70
2023/05/12 11:10:42;;;;;;;1.98;1.35;;;21.30;99.90;;;;;;5090673;28;20047;-72
2023/05/12 11:13:10;;;;;;;6.38;1.80;;;21.20;99.90;;;;;;5087317;27;20476;-70
2023/05/12 11:15:36;;;;;;;1.73;1.00;;;21.10;99.90;;;;;;5089284;28;20054;-70
2023/05/12 11:18:08;;;;;;;3.72;1.52;;;21.10;99.90;;;;;;5091555;28;20035;-70
2023/05/12 11:20:34;;;;;;;2.10;1.30;;;21.10;99.90;;;;;;5087318;28;20544;-71
2023/05/12 11:22:59;;;;;;;2.60;1.00;;;21.20;99.90;;;;;;5090917;28;20046;-71
2023/05/12 11:25:27;;;;;;;3.53;1.38;;;21.30;99.90;;;;;;5090762;28;20050;-70
2023/05/12 11:27:52;;;;;;;6.50;1.17;;;21.20;99.90;;;;;;5088151;28;20040;-70
2023/05/12 11:30:24;;;;;;;2.63;0.93;;;21.20;99.90;;;;;;5095424;28;20558;-70
2023/05/12 11:33:02;;;;;;;1.90;1.13;;;21.10;99.90;;;;;;5091801;28;20391;-71
2023/05/12 11:35:30;;;;;;;2.05;0.90;;;21.10;99.90;;;;;;5093192;28;20020;-71
2023/05/12 11:37:56;;;;;;;5.47;1.50;;;21.20;99.90;;;;;;5088956;28;20042;-71
2023/05/12 11:40:25;;;;;;;1.35;0.60;;;21.30;99.90;;;;;;5095330;28;20028;-71
2023/05/12 11:42:51;;;;;;;1.80;0.98;;;21.40;99.90;;;;;;5091761;28;20028;-72
2023/05/12 11:45:28;;;;;;;1.88;0.60;;;21.60;99.90;;;;;;5092055;28;20107;-71
2023/05/12 11:48:13;;;;;;;3.05;0.50;;;21.50;99.40;;;;;;5094726;28;20088;-71
2023/05/12 11:50:41;;;;;;;1.77;0.73;;;21.60;99.80;;;;;;5088157;28;20036;-71
2023/05/12 11:53:17;;;;;;;1.42;0.73;;;21.50;99.90;;;;;;5091868;28;20043;-71
2023/05/12 11:55:51;;;;;;;4.13;0.75;;;21.50;99.90;;;;;;5091637;28;20758;-72
2023/05/12 11:58:25;;;;;;;2.08;0.50;;;21.70;99.90;;;;;;5092539;28;20055;-71
2023/05/12 12:00:52;;;;;;;5.03;1.70;;;21.70;99.10;;;;;;5092163;28;20024;-71
2023/05/12 12:03:20;;;;;;;1.35;0.60;;;21.80;99.30;;;;;;5090831;28;20428;-72
2023/05/12 12:06:01;;;;;;;3.60;0.80;;;21.80;99.70;;;;;;5091457;28;20058;-72
2023/05/12 12:08:26;;;;;;;2.20;0.40;;;21.80;98.20;;;;;;5097618;27;20053;-70
2023/05/12 12:10:55;;;;;;;3.03;0.57;;;21.90;99.90;;;;;;5092892;28;20028;-71
2023/05/12 12:13:24;;;;;;;1.48;0.85;;;21.90;99.90;;;;;;5095550;28;20506;-71
2023/05/12 12:15:51;;;;;;;1.33;0.93;;;22.10;99.30;;;;;;5095264;28;20036;-71
2023/05/12 12:18:17;;;;;;;2.65;0.98;;;22.00;99.10;;;;;;5085931;28;20036;-71
2023/05/12 12:20:43;;;;;;;2.28;0.80;;;21.70;99.70;;;;;;5086055;28;20085;-72
2023/05/12 12:23:12;;;;;;;1.20;0.65;;;21.60;99.50;;;;;;5089943;28;20079;-70
2023/05/12 12:25:37;;;;;;;5.38;0.60;;;21.40;99.90;;;;;;5093639;28;20028;-75
2023/05/12 12:28:04;;;;;;;1.08;0.77;;;21.40;99.90;;;;;;5089373;28;20055;-70
2023/05/12 12:30:30;;;;;;;2.03;0.80;;;21.50;99.90;;;;;;5090287;28;20119;-70
2023/05/12 12:32:56;;;;;;;2.72;1.00;;;21.60;99.90;;;;;;5088018;28;20131;-71
2023/05/12 12:35:24;;;;;;;0.65;0.55;;;21.70;99.90;;;;;;5094574;27;20112;-71
2023/05/12 12:37:50;;;;;;;2.33;0.82;;;21.70;99.70;;;;;;5087272;28;20020;-71
2023/05/12 12:40:18;;;;;;;3.45;1.17;;;21.60;99.60;;;;;;5087975;28;20477;-72
2023/05/12 12:42:43;;;;;;;12.57;0.70;;;21.60;99.80;;;;;;5085791;28;20036;-71
2023/05/12 12:45:12;;;;;;;2.97;0.90;;;21.60;99.40;;;;;;5091001;27;20036;-71
2023/05/12 12:47:41;;;;;;;5.50;0.63;;;21.60;99.20;;;;;;5089437;27;20524;-72
2023/05/12 12:50:08;;;;;;;1.25;0.65;;;21.70;98.60;;;;;;5094297;28;20120;-72